.
WxDataArchive / Data Records for 2007-01-13
2007-01-12 January 2007 2007-01-14

Data Records for Saturday, 13 January 2007

Time	Temp	Chill	HIndex	Humid	Dewpt	 Wind 	HiWind	WindDir	Rain 	Barom 
-----	----	-----	------	-----	-----	------	------	-------	-----	----- 
00:00	44.8	44.8	44.8	96	43.7	0	1	270	0.01	30.122 
00:05	44.6	44.6	44.6	96	43.5	0	2	270	0.00	30.121 
00:10	44.5	44.5	44.5	96	43.4	0	1	292	0.00	30.122 
00:15	44.3	44.3	44.3	96	43.2	0	1	292	0.01	30.124 
00:20	44.2	44.2	44.2	96	43.1	0	2	292	0.00	30.126 
00:25	44.1	44.1	44.1	96	43.0	0	2	292	0.00	30.126 
00:30	43.9	43.9	43.9	96	42.8	1	3	0	0.00	30.126 
00:35	43.8	43.8	43.8	96	42.7	1	2	315	0.01	30.126 
00:40	43.6	43.6	43.6	96	42.5	1	3	338	0.00	30.126 
00:45	43.5	43.5	43.5	96	42.4	1	3	292	0.00	30.125 
00:50	43.5	43.5	43.5	96	42.4	1	3	292	0.01	30.126 
00:55	43.3	43.3	43.3	96	42.2	0	1	292	0.00	30.126 
01:00	43.3	43.3	43.3	96	42.2	0	2	292	0.00	30.127 
01:05	43.3	43.3	43.3	96	42.2	0	1	292	0.01	30.128 
01:10	43.3	43.3	43.3	96	42.2	0	2	292	0.00	30.127 
01:15	43.2	43.2	43.2	96	42.1	0	2	292	0.01	30.126 
01:20	43.1	43.1	43.1	96	42.0	0	2	292	0.00	30.126 
01:25	42.9	42.9	42.9	96	41.8	1	2	338	0.00	30.125 
01:30	42.6	42.6	42.6	96	41.5	1	3	270	0.01	30.124 
01:35	42.3	42.3	42.3	96	41.2	0	2	270	0.00	30.123 
01:40	42.2	42.2	42.2	96	41.1	0	2	270	0.00	30.124 
01:45	42.2	42.2	42.2	96	41.1	0	1	270	0.01	30.121 
01:50	42.2	42.2	42.2	96	41.1	0	1	270	0.00	30.121 
01:55	42.1	42.1	42.1	96	41.0	0	0	---	0.00	30.117 
02:00	42.1	42.1	42.1	96	41.0	0	1	270	0.00	30.121 
02:05	42.1	42.1	42.1	96	41.0	0	1	270	0.00	30.129 
02:10	42.1	42.1	42.1	96	41.0	0	1	270	0.00	30.130 
02:15	42.1	42.1	42.1	96	41.0	0	1	270	0.00	30.130 
02:20	41.9	41.9	41.9	96	40.8	0	2	270	0.01	30.132 
02:25	41.8	41.8	41.8	96	40.7	0	1	315	0.00	30.138 
02:30	41.8	41.8	41.8	96	40.7	0	3	338	0.00	30.141 
02:35	41.8	41.8	41.8	96	40.7	0	1	338	0.01	30.144 
02:40	41.8	41.8	41.8	96	40.7	0	1	338	0.00	30.143 
02:45	41.8	41.8	41.8	96	40.7	0	0	---	0.01	30.143 
02:50	41.8	41.8	41.8	96	40.7	0	2	338	0.00	30.142 
02:55	41.6	41.6	41.6	96	40.5	0	1	338	0.00	30.142 
03:00	41.6	41.6	41.6	96	40.5	0	2	338	0.01	30.143 
03:05	41.5	41.5	41.5	96	40.4	0	2	315	0.00	30.146 
03:10	41.5	41.5	41.5	96	40.4	0	1	315	0.00	30.146 
03:15	41.3	41.3	41.3	96	40.2	0	2	315	0.00	30.153 
03:20	41.3	41.3	41.3	96	40.2	0	2	315	0.01	30.152 
03:25	41.2	41.2	41.2	96	40.1	0	2	315	0.00	30.156 
03:30	41.2	41.2	41.2	96	40.1	0	2	292	0.01	30.157 
03:35	41.1	41.1	41.1	96	40.0	0	2	292	0.00	30.159 
03:40	41.1	41.1	41.1	96	40.0	0	1	292	0.00	30.159 
03:45	40.9	40.9	40.9	96	39.8	0	1	292	0.01	30.158 
03:50	40.9	40.9	40.9	96	39.8	0	1	292	0.01	30.159 
03:55	40.8	40.8	40.8	96	39.7	0	3	292	0.00	30.159 
04:00	40.8	40.8	40.8	96	39.7	0	1	315	0.00	30.157 
04:05	40.8	40.8	40.8	96	39.7	0	2	315	0.01	30.152 
04:10	40.6	40.6	40.6	96	39.5	0	2	292	0.00	30.148 
04:15	40.6	40.6	40.6	96	39.5	0	1	292	0.00	30.148 
04:20	40.6	40.6	40.6	96	39.5	0	1	292	0.00	30.150 
04:25	40.6	40.6	40.6	96	39.5	0	1	292	0.00	30.156 
04:30	40.6	40.6	40.6	96	39.5	0	2	292	0.01	30.153 
04:35	40.5	40.5	40.5	96	39.5	0	3	338	0.00	30.155 
04:40	40.5	40.5	40.5	96	39.5	0	1	338	0.00	30.158 
04:45	40.5	40.5	40.5	96	39.5	0	2	338	0.00	30.158 
04:50	40.5	40.5	40.5	96	39.5	0	1	338	0.00	30.158 
04:55	40.5	40.5	40.5	96	39.5	0	2	338	0.00	30.159 
05:00	40.3	40.3	40.3	96	39.3	0	1	338	0.00	30.161 
05:05	40.3	40.3	40.3	96	39.3	0	1	338	0.00	30.163 
05:10	40.3	40.3	40.3	96	39.3	0	4	338	0.00	30.164 
05:15	40.3	40.3	40.3	96	39.3	1	5	45	0.00	30.163 
05:20	39.9	39.9	39.9	96	38.9	1	4	22	0.00	30.164 
05:25	39.6	39.6	39.6	95	38.3	1	5	22	0.01	30.164 
05:30	39.5	39.5	39.5	95	38.2	1	5	0	0.00	30.168 
05:35	39.3	39.3	39.3	95	38.0	1	3	90	0.00	30.171 
05:40	39.3	39.3	39.3	95	38.0	1	3	45	0.00	30.178 
05:45	39.2	39.2	39.2	95	37.9	1	4	22	0.00	30.181 
05:50	38.8	38.8	38.8	94	37.2	1	4	338	0.00	30.185 
05:55	38.5	38.5	38.5	94	36.9	1	4	68	0.00	30.181 
06:00	37.8	37.8	37.8	92	35.7	2	7	22	0.00	30.183 
06:05	37.5	37.5	37.5	92	35.4	1	4	90	0.00	30.189 
06:10	37.2	37.2	37.2	92	35.1	1	3	45	0.00	30.201 
06:15	37.0	37.0	37.0	92	34.9	1	4	68	0.00	30.209 
06:20	36.8	36.8	36.8	92	34.7	1	4	22	0.00	30.213 
06:25	36.5	36.5	36.5	92	34.4	1	5	90	0.00	30.215 
06:30	36.2	36.2	36.2	93	34.4	1	3	112	0.00	30.221 
06:35	36.0	36.0	36.0	93	34.2	1	4	135	0.00	30.215 
06:40	36.0	36.0	36.0	93	34.2	1	4	45	0.00	30.212 
06:45	35.9	35.9	35.9	93	34.1	2	6	45	0.00	30.205 
06:50	35.8	35.8	35.8	93	34.0	2	6	112	0.00	30.212 
06:55	35.6	35.6	35.6	93	33.8	1	2	112	0.00	30.214 
07:00	35.6	35.6	35.6	93	33.8	1	4	45	0.00	30.221 
07:05	35.5	35.5	35.5	94	33.9	2	5	112	0.00	30.214 
07:10	35.5	35.5	35.5	94	33.9	1	4	90	0.01	30.228 
07:15	35.3	35.3	35.3	94	33.7	2	7	22	0.00	30.237 
07:20	35.2	35.2	35.2	94	33.6	2	6	90	0.00	30.240 
07:25	35.2	35.2	35.2	94	33.6	1	2	68	0.00	30.241 
07:30	35.2	35.2	35.2	94	33.6	1	3	90	0.00	30.246 
07:35	35.2	35.2	35.2	95	33.9	2	6	90	0.00	30.243 
07:40	35.0	35.0	35.0	94	33.5	2	4	45	0.00	30.242 
07:45	35.0	35.0	35.0	95	33.7	1	4	45	0.00	30.246 
07:50	34.9	34.9	34.9	95	33.6	1	4	90	0.00	30.245 
07:55	34.9	34.9	34.9	95	33.6	2	6	112	0.00	30.245 
08:00	34.7	34.7	34.7	94	33.2	2	6	68	0.00	30.247 
08:05	34.7	34.7	34.7	94	33.2	2	6	112	0.00	30.246 
08:10	34.7	34.7	34.7	94	33.2	1	3	68	0.00	30.253 
08:15	34.7	34.7	34.7	94	33.2	1	3	90	0.00	30.252 
08:20	34.7	34.7	34.7	94	33.2	1	3	135	0.00	30.252 
08:25	34.7	34.7	34.7	94	33.2	1	4	45	0.00	30.259 
08:30	34.6	34.6	34.6	93	32.8	2	6	112	0.00	30.260 
08:35	34.6	34.6	34.6	93	32.8	2	5	45	0.00	30.260 
08:40	34.6	34.6	34.6	93	32.8	1	4	112	0.00	30.260 
08:45	34.6	34.6	34.6	93	32.8	1	4	135	0.00	30.260 
08:50	34.6	34.6	34.6	92	32.5	1	5	112	0.00	30.261 
08:55	34.6	34.6	34.6	92	32.5	2	5	68	0.00	30.261 
09:00	34.6	34.6	34.6	92	32.5	2	5	112	0.00	30.262 
09:05	34.6	34.6	34.6	92	32.5	2	9	90	0.00	30.261 
09:10	34.6	34.6	34.6	92	32.5	2	9	45	0.00	30.262 
09:15	34.6	34.6	34.6	92	32.5	1	4	112	0.00	30.265 
09:20	34.6	34.6	34.6	92	32.5	2	10	112	0.00	30.262 
09:25	34.6	34.6	34.6	93	32.8	2	6	112	0.00	30.260 
09:30	34.4	34.4	34.4	93	32.6	3	9	90	0.00	30.264 
09:35	34.3	34.3	34.3	93	32.5	2	5	45	0.00	30.275 
09:40	34.3	34.3	34.3	93	32.5	2	5	90	0.00	30.277 
09:45	34.3	34.3	34.3	93	32.5	3	7	112	0.00	30.271 
09:50	34.3	34.3	34.3	93	32.5	2	7	90	0.00	30.267 
09:55	34.3	34.3	34.3	93	32.5	3	9	112	0.00	30.263 
10:00	34.1	34.1	34.1	94	32.6	2	6	112	0.00	30.263 
10:05	34.1	34.1	34.1	94	32.6	2	6	90	0.00	30.267 
10:10	34.3	34.3	34.3	94	32.8	1	5	45	0.00	30.279 
10:15	34.1	34.1	34.1	94	32.6	1	4	112	0.00	30.271 
10:20	34.1	34.1	34.1	95	32.8	2	7	112	0.00	30.266 
10:25	34.1	34.1	34.1	94	32.6	3	7	112	0.00	30.268 
10:30	34.1	34.1	34.1	95	32.8	2	6	90	0.00	30.268 
10:35	34.1	34.1	34.1	95	32.8	2	4	90	0.00	30.269 
10:40	34.4	34.4	34.4	95	33.1	1	6	112	0.00	30.281 
10:45	34.3	34.3	34.3	95	33.0	2	5	112	0.00	30.281 
10:50	34.3	34.3	34.3	95	33.0	1	4	90	0.00	30.281 
10:55	34.3	34.3	34.3	95	33.0	2	6	112	0.00	30.277 
11:00	34.3	34.3	34.3	95	33.0	2	6	90	0.00	30.277 
11:05	34.4	34.4	34.4	95	33.1	3	9	112	0.00	30.283 
11:10	34.3	34.3	34.3	95	33.0	2	7	90	0.00	30.279 
11:15	34.3	34.3	34.3	95	33.0	1	4	112	0.00	30.281 
11:20	34.4	34.4	34.4	95	33.1	2	9	90	0.00	30.269 
11:25	34.4	34.4	34.4	95	33.1	2	7	112	0.00	30.271 
11:30	34.6	34.6	34.6	95	33.3	3	6	112	0.00	30.269 
11:35	34.4	34.4	34.4	94	32.9	3	9	112	0.00	30.269 
11:40	34.4	30.8	34.4	94	32.9	4	9	112	0.00	30.269 
11:45	34.4	34.4	34.4	94	32.9	2	6	45	0.00	30.268 
11:50	34.4	34.4	34.4	94	32.9	2	5	90	0.00	30.266 
11:55	34.3	34.3	34.3	93	32.5	3	7	112	0.00	30.268 
12:00	34.3	34.3	34.3	93	32.5	3	11	112	0.00	30.268 
12:05	34.4	34.4	34.4	93	32.6	3	10	112	0.00	30.269 
12:10	34.4	34.4	34.4	93	32.6	3	10	112	0.00	30.263 
12:15	34.6	34.6	34.6	93	32.8	3	7	112	0.00	30.260 
12:20	34.4	34.4	34.4	93	32.6	2	8	22	0.00	30.255 
12:25	34.6	34.6	34.6	93	32.8	2	8	112	0.00	30.257 
12:30	34.6	34.6	34.6	93	32.8	3	10	112	0.00	30.252 
12:35	34.6	34.6	34.6	93	32.8	2	5	90	0.00	30.253 
12:40	34.6	34.6	34.6	93	32.8	2	4	22	0.00	30.253 
12:45	34.4	34.4	34.4	94	32.9	2	7	45	0.00	30.252 
12:50	34.4	34.4	34.4	94	32.9	2	4	112	0.00	30.253 
12:55	34.6	34.6	34.6	94	33.1	2	3	22	0.00	30.251 
13:00	34.6	34.6	34.6	94	33.1	1	4	90	0.00	30.250 
13:05	34.6	34.6	34.6	94	33.1	2	6	90	0.00	30.248 
13:10	34.6	34.6	34.6	94	33.1	2	7	112	0.00	30.248 
13:15	34.6	31.1	34.6	93	32.8	4	7	112	0.00	30.238 
13:20	34.6	34.6	34.6	93	32.8	2	7	112	0.00	30.236 
13:25	34.6	34.6	34.6	92	32.5	2	7	68	0.00	30.224 
13:30	34.4	30.8	34.4	92	32.3	4	10	90	0.00	30.223 
13:35	34.4	34.4	34.4	92	32.3	3	7	90	0.00	30.221 
13:40	34.4	30.8	34.4	92	32.3	4	9	112	0.00	30.220 
13:45	34.4	34.4	34.4	92	32.3	3	8	112	0.00	30.218 
13:50	34.4	34.4	34.4	92	32.3	3	8	112	0.00	30.218 
13:55	34.3	34.3	34.3	92	32.2	3	6	90	0.00	30.214 
14:00	34.3	34.3	34.3	92	32.2	3	7	112	0.00	30.211 
14:05	34.3	34.3	34.3	93	32.5	2	6	90	0.00	30.212 
14:10	34.3	34.3	34.3	93	32.5	3	7	112	0.00	30.213 
14:15	34.0	30.4	34.0	93	32.2	4	7	112	0.00	30.212 
14:20	34.0	34.0	34.0	93	32.2	3	9	112	0.00	30.209 
14:25	33.8	33.8	33.8	93	32.0	2	5	45	0.00	30.210 
14:30	33.8	33.8	33.8	93	32.0	2	7	112	0.00	30.218 
14:35	33.8	33.8	33.8	93	32.0	2	8	112	0.00	30.221 
14:40	33.7	33.7	33.7	93	31.9	1	5	22	0.00	30.220 
14:45	33.7	33.7	33.7	93	31.9	2	5	112	0.00	30.220 
14:50	33.8	33.8	33.8	93	32.0	1	4	135	0.00	30.222 
14:55	33.8	33.8	33.8	93	32.0	0	3	112	0.00	30.223 
15:00	33.8	33.8	33.8	93	32.0	2	7	112	0.00	30.221 
15:05	33.8	33.8	33.8	92	31.7	2	5	90	0.00	30.221 
15:10	33.7	33.7	33.7	92	31.6	2	6	45	0.00	30.219 
15:15	33.7	33.7	33.7	92	31.6	1	5	112	0.00	30.221 
15:20	33.4	33.4	33.4	92	31.3	2	5	45	0.00	30.220 
15:25	33.2	33.2	33.2	93	31.4	2	6	112	0.00	30.217 
15:30	33.2	33.2	33.2	93	31.4	2	6	90	0.00	30.221 
15:35	33.1	33.1	33.1	93	31.3	1	4	45	0.00	30.223 
15:40	33.1	33.1	33.1	94	31.6	1	5	112	0.00	30.222 
15:45	33.1	33.1	33.1	94	31.6	1	5	112	0.00	30.224 
15:50	32.9	32.9	32.9	94	31.4	1	4	90	0.00	30.224 
15:55	32.9	32.9	32.9	94	31.4	2	7	112	0.00	30.219 
16:00	32.9	32.9	32.9	94	31.4	1	5	90	0.00	30.221 
16:05	32.9	32.9	32.9	94	31.4	2	6	45	0.00	30.224 
16:10	32.9	32.9	32.9	94	31.4	2	6	112	0.00	30.225 
16:15	32.9	32.9	32.9	94	31.4	3	7	112	0.00	30.225 
16:20	32.9	32.9	32.9	94	31.4	2	6	112	0.00	30.223 
16:25	32.8	32.8	32.8	93	31.0	2	6	112	0.00	30.224 
16:30	32.8	32.8	32.8	94	31.3	2	5	112	0.00	30.221 
16:35	32.8	32.8	32.8	94	31.3	2	7	112	0.00	30.221 
16:40	32.8	32.8	32.8	94	31.3	3	8	112	0.00	30.216 
16:45	32.7	32.7	32.7	94	31.2	3	7	112	0.00	30.212 
16:50	32.7	32.7	32.7	94	31.2	3	8	112	0.00	30.213 
16:55	32.7	32.7	32.7	94	31.2	3	10	112	0.00	30.215 
17:00	32.5	27.7	32.5	93	30.7	5	12	112	0.00	30.214 
17:05	32.5	32.5	32.5	94	31.0	2	6	112	0.00	30.221 
17:10	32.5	32.5	32.5	93	30.7	3	9	112	0.00	30.226 
17:15	32.5	32.5	32.5	93	30.7	3	10	112	0.00	30.224 
17:20	32.5	32.5	32.5	93	30.7	2	6	112	0.00	30.225 
17:25	32.4	32.4	32.4	93	30.6	3	6	112	0.00	30.222 
17:30	32.4	28.5	32.4	93	30.6	4	9	112	0.00	30.223 
17:35	32.4	28.5	32.4	93	30.6	4	10	112	0.00	30.227 
17:40	32.4	28.5	32.4	93	30.6	4	11	112	0.00	30.227 
17:45	32.4	32.4	32.4	94	30.9	1	4	90	0.00	30.228 
17:50	32.4	32.4	32.4	94	30.9	2	5	112	0.00	30.230 
17:55	32.4	32.4	32.4	94	30.9	2	6	112	0.00	30.232 
18:00	32.4	32.4	32.4	94	30.9	1	3	112	0.00	30.237 
18:05	32.4	32.4	32.4	94	30.9	2	5	112	0.00	30.242 
18:10	32.4	32.4	32.4	93	30.6	2	5	90	0.00	30.233 
18:15	32.4	32.4	32.4	93	30.6	3	7	90	0.00	30.237 
18:20	32.5	32.5	32.5	93	30.7	2	6	112	0.00	30.246 
18:25	32.4	32.4	32.4	93	30.6	2	4	112	0.00	30.245 
18:30	32.4	32.4	32.4	94	30.9	3	5	112	0.00	30.242 
18:35	32.5	32.5	32.5	94	31.0	0	2	90	0.00	30.255 
18:40	32.5	32.5	32.5	94	31.0	1	5	90	0.00	30.250 
18:45	32.5	32.5	32.5	94	31.0	1	4	112	0.00	30.257 
18:50	32.5	32.5	32.5	94	31.0	1	4	45	0.00	30.262 
18:55	32.4	32.4	32.4	94	30.9	1	3	68	0.00	30.261 
19:00	32.4	32.4	32.4	95	31.1	1	2	112	0.00	30.254 
19:05	32.4	32.4	32.4	95	31.1	1	5	90	0.01	30.258 
19:10	32.4	32.4	32.4	95	31.1	0	2	68	0.00	30.261 
19:15	32.2	32.2	32.2	95	30.9	1	3	90	0.00	30.263 
19:20	32.2	32.2	32.2	95	30.9	0	2	90	0.00	30.264 
19:25	32.2	32.2	32.2	95	30.9	1	3	90	0.00	30.261 
19:30	32.2	32.2	32.2	95	30.9	1	3	90	0.00	30.258 
19:35	32.2	32.2	32.2	95	30.9	1	3	90	0.00	30.256 
19:40	32.1	32.1	32.1	95	30.8	1	5	112	0.00	30.260 
19:45	32.1	32.1	32.1	95	30.8	1	3	90	0.00	30.252 
19:50	32.1	32.1	32.1	95	30.8	1	4	90	0.00	30.249 
19:55	32.1	32.1	32.1	95	30.8	0	2	112	0.00	30.248 
20:00	32.1	32.1	32.1	95	30.8	3	6	112	0.00	30.243 
20:05	32.1	32.1	32.1	95	30.8	2	5	112	0.00	30.247 
20:10	32.1	32.1	32.1	96	31.1	2	4	112	0.00	30.247 
20:15	32.1	32.1	32.1	96	31.1	2	4	112	0.00	30.248 
20:20	32.1	32.1	32.1	96	31.1	2	4	112	0.00	30.248 
20:25	32.1	32.1	32.1	96	31.1	2	6	112	0.00	30.247 
20:30	32.1	32.1	32.1	96	31.1	2	5	112	0.00	30.247 
20:35	32.1	32.1	32.1	96	31.1	1	4	112	0.00	30.244 
20:40	32.1	32.1	32.1	96	31.1	2	6	112	0.00	30.237 
20:45	32.1	32.1	32.1	96	31.1	1	4	112	0.00	30.235 
20:50	32.1	32.1	32.1	96	31.1	2	3	90	0.00	30.234 
20:55	32.1	32.1	32.1	96	31.1	2	5	90	0.00	30.231 
21:00	32.1	32.1	32.1	96	31.1	1	4	112	0.00	30.233 
21:05	32.2	32.2	32.2	96	31.2	1	3	112	0.01	30.236 
21:10	32.2	32.2	32.2	96	31.2	1	3	112	0.00	30.235 
21:15	32.1	32.1	32.1	96	31.1	1	4	112	0.00	30.234 
21:20	32.1	32.1	32.1	96	31.1	2	5	112	0.00	30.232 
21:25	31.9	31.9	31.9	96	30.9	2	7	112	0.00	30.233 
21:30	31.9	31.9	31.9	96	30.9	1	3	22	0.00	30.234 
21:35	31.9	31.9	31.9	96	30.9	1	3	90	0.00	30.232 
21:40	31.9	31.9	31.9	96	30.9	2	5	112	0.00	30.229 
21:45	31.9	31.9	31.9	96	30.9	1	3	112	0.00	30.224 
21:50	32.1	32.1	32.1	96	31.1	2	4	90	0.00	30.220 
21:55	32.1	32.1	32.1	96	31.1	1	3	112	0.00	30.217 
22:00	32.1	32.1	32.1	96	31.1	1	3	112	0.00	30.218 
22:05	32.1	32.1	32.1	96	31.1	2	5	112	0.00	30.215 
22:10	31.9	31.9	31.9	96	30.9	3	9	112	0.00	30.212 
22:15	31.9	31.9	31.9	96	30.9	3	7	112	0.00	30.211 
22:20	31.9	31.9	31.9	96	30.9	2	6	112	0.00	30.209 
22:25	31.9	31.9	31.9	96	30.9	2	5	90	0.00	30.202 
22:30	31.9	31.9	31.9	96	30.9	2	6	112	0.00	30.203 
22:35	31.9	31.9	31.9	96	30.9	3	5	112	0.00	30.202 
22:40	31.9	31.9	31.9	96	30.9	2	5	90	0.00	30.202 
22:45	31.9	31.9	31.9	96	30.9	2	5	112	0.00	30.203 
22:50	31.9	31.9	31.9	96	30.9	1	3	90	0.00	30.211 
22:55	32.1	32.1	32.1	96	31.1	0	2	90	0.00	30.215 
23:00	32.1	32.1	32.1	96	31.1	0	2	90	0.00	30.219 
23:05	32.1	32.1	32.1	96	31.1	0	0	---	0.00	30.229 
23:10	32.2	32.2	32.2	96	31.2	0	1	90	0.00	30.230 
23:15	32.1	32.1	32.1	96	31.1	0	1	90	0.00	30.229 
23:20	32.2	32.2	32.2	96	31.2	0	2	90	0.00	30.222 
23:25	32.2	32.2	32.2	96	31.2	0	2	90	0.00	30.220 
23:30	32.2	32.2	32.2	96	31.2	1	2	90	0.00	30.216 
23:35	32.2	32.2	32.2	96	31.2	0	2	90	0.00	30.216 
23:40	32.2	32.2	32.2	96	31.2	1	2	90	0.00	30.216 
23:45	32.2	32.2	32.2	96	31.2	0	0	---	0.00	30.221 
23:50	32.2	32.2	32.2	96	31.2	0	1	90	0.00	30.232 
23:55	32.2	32.2	32.2	96	31.2	0	2	0	0.00	30.236 

CoCoRaHS
IN-AL-39
A2 Web Hosting
Creative Commons License
GoDaddy
Look for:

loaded 2017-12-12 16:59:50 • last modified 2010-11-18 10:43:29
Privacy PolicyDisclaimer
• wx.awcolley.com is powered by PmWiki v.2002016 •
• all content (unless otherwise noted) © 2017 A W Colley